createdAt,value
2023-05-20T00:00:48.489Z,4.47
2023-05-20T00:03:15.685Z,4.38
2023-05-20T00:05:42.906Z,4.30
2023-05-20T00:08:11.139Z,4.30
2023-05-20T00:10:38.071Z,4.25
2023-05-20T00:13:05.287Z,4.55
2023-05-20T00:15:32.751Z,4.32
2023-05-20T00:18:01.807Z,4.63
2023-05-20T00:20:29.089Z,4.85
2023-05-20T00:22:55.874Z,4.75
2023-05-20T00:25:22.633Z,4.60
2023-05-20T00:27:49.346Z,5.10
2023-05-20T00:30:16.057Z,4.90
2023-05-20T00:32:42.621Z,4.82
2023-05-20T00:35:11.480Z,5.00
2023-05-20T00:37:38.251Z,5.22
2023-05-20T00:40:05.845Z,4.85
2023-05-20T00:42:32.610Z,4.97
2023-05-20T00:45:00.784Z,4.95
2023-05-20T00:47:30.367Z,5.15
2023-05-20T00:49:57.696Z,5.47
2023-05-20T00:52:25.312Z,5.30
2023-05-20T00:54:52.487Z,5.25
2023-05-20T00:57:19.702Z,5.47
2023-05-20T00:59:46.341Z,5.38
2023-05-20T01:02:13.552Z,5.57
2023-05-20T01:04:40.377Z,5.80
2023-05-20T01:07:07.331Z,5.20
2023-05-20T01:09:34.299Z,4.95
2023-05-20T01:12:09.828Z,5.60
2023-05-20T01:14:38.011Z,5.32
2023-05-20T01:17:09.638Z,5.93
2023-05-20T01:19:38.594Z,5.43
2023-05-20T01:22:07.049Z,5.65
2023-05-20T01:24:36.605Z,6.18
2023-05-20T01:27:03.851Z,5.45
2023-05-20T01:29:32.750Z,5.97
2023-05-20T01:32:00.522Z,6.20
2023-05-20T01:34:27.516Z,6.15
2023-05-20T01:36:56.237Z,5.85
2023-05-20T01:39:25.949Z,6.65
2023-05-20T01:41:52.524Z,6.28
2023-05-20T01:44:19.087Z,6.55
2023-05-20T01:46:49.221Z,6.25
2023-05-20T01:49:16.089Z,5.95
2023-05-20T01:51:44.713Z,6.68
2023-05-20T01:54:11.469Z,6.00
2023-05-20T01:56:38.191Z,6.28
2023-05-20T01:59:05.107Z,6.18
2023-05-20T07:20:42.016Z,7.20
2023-05-20T07:23:15.981Z,7.68
2023-05-20T07:25:47.449Z,7.38
2023-05-20T07:28:15.905Z,7.20
2023-05-20T07:30:49.876Z,7.50
2023-05-20T07:33:25.956Z,7.20
2023-05-20T07:35:54.645Z,7.43
2023-05-20T07:38:22.595Z,6.70
2023-05-20T07:40:56.325Z,7.35
2023-05-20T07:43:23.332Z,6.15
2023-05-20T07:45:50.839Z,6.88
2023-05-20T07:48:17.401Z,7.20
2023-05-20T07:50:44.649Z,7.40
2023-05-20T07:53:12.131Z,6.80
2023-05-20T07:55:39.377Z,6.53
2023-05-20T07:58:06.708Z,7.00
2023-05-20T08:03:04.618Z,7.55
2023-05-20T08:05:41.944Z,7.60
2023-05-20T08:08:10.431Z,7.25
2023-05-20T08:10:48.285Z,7.75
2023-05-20T08:13:14.848Z,7.43
2023-05-20T08:15:42.214Z,8.05
2023-05-20T08:18:08.764Z,7.07
2023-05-20T08:20:35.433Z,7.03
2023-05-20T08:23:02.087Z,7.38
2023-05-20T08:25:28.719Z,7.57
2023-05-20T08:27:55.449Z,7.50
2023-05-20T08:30:22.583Z,7.90
2023-05-20T08:32:49.285Z,7.75
2023-05-20T08:35:16.080Z,7.68
2023-05-20T08:37:42.759Z,7.55
2023-05-20T08:40:09.892Z,7.45
2023-05-20T08:42:36.600Z,8.30
2023-05-20T08:45:03.442Z,7.30
2023-05-20T08:47:31.694Z,6.68
2023-05-20T08:49:58.361Z,6.57
2023-05-20T08:52:25.529Z,7.28
2023-05-20T08:54:52.234Z,7.38
2023-05-20T08:57:20.372Z,7.60
2023-05-20T09:02:15.803Z,6.22
2023-05-20T09:04:42.483Z,6.70
2023-05-20T09:07:09.133Z,6.90
2023-05-20T09:09:35.694Z,6.68
2023-05-20T09:12:03.210Z,6.70
2023-05-20T09:14:30.410Z,7.10
2023-05-20T09:16:57.300Z,5.75
2023-05-20T09:19:24.722Z,5.63
2023-05-20T09:21:53.590Z,5.90
2023-05-20T09:24:24.264Z,5.93
2023-05-20T09:26:50.967Z,6.00
2023-05-20T09:29:17.570Z,6.07
2023-05-20T09:31:44.558Z,5.90
2023-05-20T09:34:11.660Z,5.72
2023-05-20T09:36:39.392Z,6.75
2023-05-20T09:39:07.378Z,7.32
2023-05-20T09:41:38.849Z,7.35
2023-05-20T09:44:06.882Z,8.13
2023-05-20T09:46:34.451Z,7.25
2023-05-20T09:49:01.277Z,16.45
2023-05-20T09:51:29.700Z,14.32
2023-05-20T09:53:57.177Z,15.90
2023-05-20T09:56:24.038Z,18.00
2023-05-20T09:58:51.077Z,12.20
2023-05-20T10:01:17.936Z,8.07
2023-05-20T10:03:44.817Z,43.22
2023-05-20T10:06:29.209Z,10.20
2023-05-20T10:09:10.068Z,10.20
2023-05-20T10:11:42.434Z,6.70
2023-05-20T10:14:27.040Z,6.63
2023-05-20T10:17:13.965Z,6.45
2023-05-20T10:19:40.642Z,6.20
2023-05-20T10:22:09.070Z,7.03
2023-05-20T10:24:38.301Z,9.70
2023-05-20T10:27:08.934Z,21.08
2023-05-20T10:29:55.158Z,78.20
2023-05-20T10:32:25.027Z,175.23
2023-05-20T10:34:51.811Z,339.80
2023-05-20T10:37:26.423Z,117.03
2023-05-20T10:39:52.987Z,13.10
2023-05-20T10:42:27.967Z,27.73
2023-05-20T10:44:54.546Z,24.00
2023-05-20T10:47:26.030Z,8.38
2023-05-20T10:49:53.124Z,8.77
2023-05-20T10:52:20.183Z,4.90
2023-05-20T10:54:49.414Z,5.90
2023-05-20T10:57:17.476Z,5.00
2023-05-20T10:59:44.412Z,7.25
2023-05-20T11:02:12.482Z,5.38
2023-05-20T11:04:39.324Z,6.10
2023-05-20T11:07:05.932Z,12.48
2023-05-20T11:09:34.302Z,5.25
2023-05-20T11:12:01.408Z,4.85
2023-05-20T11:14:29.068Z,5.63
2023-05-20T11:16:59.424Z,4.90
2023-05-20T11:19:26.930Z,5.35
2023-05-20T11:22:18.636Z,5.40
2023-05-20T11:24:45.180Z,5.28
2023-05-20T11:27:11.784Z,5.38
2023-05-20T11:29:39.175Z,5.38
2023-05-20T11:32:06.207Z,4.80
2023-05-20T11:34:36.838Z,4.97
2023-05-20T11:37:07.110Z,5.38
2023-05-20T11:39:34.013Z,4.97
2023-05-20T11:42:00.498Z,5.60
2023-05-20T11:44:27.066Z,5.85
2023-05-20T11:46:59.424Z,5.38
2023-05-20T11:49:26.024Z,5.50
2023-05-20T11:51:52.554Z,5.43
2023-05-20T11:54:22.202Z,6.00
2023-05-20T11:56:48.874Z,5.20
2023-05-20T11:59:15.397Z,5.53
2023-05-20T12:01:42.090Z,4.75
2023-05-20T12:04:09.459Z,5.05
2023-05-20T12:06:39.947Z,4.88
2023-05-20T12:09:07.410Z,4.85
2023-05-20T12:11:39.741Z,5.70
2023-05-20T12:14:06.496Z,4.95
2023-05-20T12:16:33.728Z,4.80
2023-05-20T12:19:00.619Z,4.80
2023-05-20T12:21:28.504Z,5.67
2023-05-20T12:26:25.795Z,5.35
2023-05-20T12:28:52.429Z,5.15
2023-05-20T12:31:19.002Z,5.43
2023-05-20T12:33:45.627Z,5.30
2023-05-20T12:36:13.129Z,6.13
2023-05-20T12:38:39.787Z,5.50
2023-05-20T12:41:06.949Z,5.65
2023-05-20T12:43:35.496Z,5.47
2023-05-20T12:46:03.756Z,5.18
2023-05-20T12:48:30.293Z,5.97
2023-05-20T12:50:56.810Z,5.78
2023-05-20T12:53:23.352Z,5.70
2023-05-20T12:55:49.929Z,5.78
2023-05-20T12:58:16.661Z,5.70
2023-05-20T13:00:43.267Z,6.28
2023-05-20T13:03:10.029Z,5.60
2023-05-20T13:05:36.685Z,5.97
2023-05-20T13:08:03.275Z,5.88
2023-05-20T13:10:29.814Z,6.15
2023-05-20T13:12:56.406Z,6.38
2023-05-20T13:15:22.946Z,5.47
2023-05-20T13:17:49.683Z,5.88
2023-05-20T13:20:19.632Z,6.17
2023-05-20T13:22:46.521Z,5.50
2023-05-20T13:25:13.076Z,5.80
2023-05-20T13:27:40.469Z,5.90
2023-05-20T13:30:09.476Z,5.80
2023-05-20T13:32:36.106Z,5.55
2023-05-20T13:35:02.635Z,6.15
2023-05-20T13:37:30.056Z,4.97
2023-05-20T13:39:56.606Z,5.82
2023-05-20T13:42:23.370Z,6.18
2023-05-20T13:44:49.930Z,5.72
2023-05-20T13:47:16.529Z,5.80
2023-05-20T13:49:43.057Z,5.25
2023-05-20T13:52:09.649Z,5.43
2023-05-20T13:54:36.318Z,5.90
2023-05-20T13:57:08.022Z,5.63
2023-05-20T13:59:35.136Z,5.43
2023-05-20T14:02:02.313Z,5.40
2023-05-20T14:04:31.101Z,5.60
2023-05-20T14:06:57.805Z,5.43
2023-05-20T14:09:24.340Z,5.43
2023-05-20T14:11:51.392Z,6.00
2023-05-20T14:14:17.940Z,5.15
2023-05-20T14:16:44.499Z,5.57
2023-05-20T14:19:11.253Z,5.20
2023-05-20T14:21:37.826Z,5.73
2023-05-20T14:24:04.604Z,4.90
2023-05-20T14:26:31.170Z,5.57
2023-05-20T14:28:57.673Z,7.07
2023-05-20T14:31:24.225Z,5.50
2023-05-20T14:33:50.870Z,7.10
2023-05-20T14:36:17.503Z,7.35
2023-05-20T14:38:44.113Z,5.72
2023-05-20T14:41:11.036Z,5.40
2023-05-20T14:43:37.650Z,5.47
2023-05-20T14:46:04.368Z,5.85
2023-05-20T14:48:31.040Z,5.90
2023-05-20T14:50:57.650Z,5.45
2023-05-20T14:53:24.255Z,5.40
2023-05-20T14:55:50.906Z,5.68
2023-05-20T14:58:17.506Z,5.47
2023-05-20T15:00:44.566Z,5.57
2023-05-20T15:03:11.759Z,5.20
2023-05-20T15:05:38.486Z,5.28
2023-05-20T15:08:05.145Z,5.38
2023-05-20T15:10:31.629Z,5.30
2023-05-20T15:12:58.224Z,5.43
2023-05-20T15:15:24.731Z,4.97
2023-05-20T15:17:51.403Z,5.45
2023-05-20T15:20:17.997Z,5.35
2023-05-20T15:22:48.274Z,5.18
2023-05-20T15:25:14.992Z,5.53
2023-05-20T15:27:44.567Z,5.18
2023-05-20T15:30:11.542Z,5.55
2023-05-20T15:32:38.143Z,5.00
2023-05-20T15:35:05.054Z,6.20
2023-05-20T15:37:31.594Z,5.32
2023-05-20T15:39:58.449Z,5.72
2023-05-20T15:42:25.546Z,5.70
2023-05-20T15:44:52.211Z,5.82
2023-05-20T15:47:18.693Z,5.50
2023-05-20T15:49:45.265Z,5.75
2023-05-20T15:52:12.073Z,5.68
2023-05-20T15:54:38.905Z,5.63
2023-05-20T15:57:05.803Z,5.47
2023-05-20T15:59:32.438Z,6.03
2023-05-20T16:01:59.076Z,5.53
2023-05-20T16:04:25.799Z,5.90
2023-05-20T16:06:52.444Z,5.70
2023-05-20T16:09:18.970Z,5.18
2023-05-20T16:11:46.381Z,5.10
2023-05-20T16:14:13.021Z,5.82
2023-05-20T16:16:39.636Z,5.88
2023-05-20T16:19:06.299Z,5.75
2023-05-20T16:21:32.934Z,5.70
2023-05-20T16:23:59.561Z,5.50
2023-05-20T16:26:26.174Z,5.60
2023-05-20T16:28:52.725Z,5.53
2023-05-20T16:31:19.568Z,5.45
2023-05-20T16:33:46.233Z,5.77
2023-05-20T16:36:12.812Z,5.53
2023-05-20T16:38:39.402Z,5.85
2023-05-20T16:41:05.994Z,5.90
2023-05-20T16:43:32.537Z,5.55
2023-05-20T16:45:59.308Z,5.90
2023-05-20T16:48:26.783Z,5.32
2023-05-20T16:50:53.379Z,5.88
2023-05-20T16:53:19.927Z,5.88
2023-05-20T16:55:47.186Z,5.53
2023-05-20T16:58:13.782Z,5.80
2023-05-20T17:00:41.144Z,5.60
2023-05-20T17:03:08.211Z,5.55
2023-05-20T17:05:34.850Z,6.13
2023-05-20T17:08:01.439Z,5.43
2023-05-20T17:10:29.449Z,5.63
2023-05-20T17:12:56.022Z,5.95
2023-05-20T17:15:23.591Z,5.85
2023-05-20T17:17:50.828Z,5.45
2023-05-20T17:20:17.614Z,5.75
2023-05-20T17:22:44.416Z,5.70
2023-05-20T17:25:11.261Z,5.85
2023-05-20T17:27:37.857Z,5.60
2023-05-20T17:30:04.564Z,6.03
2023-05-20T17:32:31.248Z,5.35
2023-05-20T17:34:57.804Z,5.80
2023-05-20T17:37:24.309Z,5.40
2023-05-20T17:39:50.880Z,5.82
2023-05-20T17:42:17.434Z,6.10
2023-05-20T17:44:43.953Z,6.05
2023-05-20T17:47:10.514Z,6.10
2023-05-20T17:49:37.218Z,6.07
2023-05-20T17:52:03.852Z,5.82
2023-05-20T17:54:30.438Z,6.07
2023-05-20T17:56:56.992Z,5.63
2023-05-20T17:59:23.531Z,6.25
2023-05-20T18:01:50.282Z,5.75
2023-05-20T18:04:17.267Z,6.18
2023-05-20T18:06:44.202Z,6.55
2023-05-20T18:09:10.701Z,5.90
2023-05-20T18:11:38.343Z,6.95
2023-05-20T18:14:04.823Z,6.57
2023-05-20T18:16:31.464Z,6.03
2023-05-20T18:18:58.337Z,6.30
2023-05-20T18:21:25.146Z,6.28
2023-05-20T18:23:51.830Z,6.75
2023-05-20T18:26:18.348Z,6.65
2023-05-20T18:28:44.938Z,5.80
2023-05-20T18:31:11.486Z,6.18
2023-05-20T18:33:38.122Z,6.55
2023-05-20T18:36:05.990Z,6.13
2023-05-20T18:38:32.732Z,6.47
2023-05-20T18:40:59.743Z,6.65
2023-05-20T18:43:26.615Z,7.40
2023-05-20T18:45:53.279Z,6.70
2023-05-20T18:48:26.256Z,6.55
2023-05-20T18:50:54.689Z,6.68
2023-05-20T18:53:21.571Z,7.47
2023-05-20T18:55:48.355Z,8.23
2023-05-20T18:58:15.034Z,8.30
2023-05-20T19:00:41.778Z,8.23
2023-05-20T19:03:08.463Z,7.57
2023-05-20T19:05:35.310Z,7.38
2023-05-20T19:08:02.633Z,7.20
2023-05-20T19:10:29.628Z,7.30
2023-05-20T19:12:56.633Z,7.45
2023-05-20T19:15:23.214Z,7.40
2023-05-20T19:17:50.704Z,7.40
2023-05-20T19:20:17.699Z,6.82
2023-05-20T19:22:44.303Z,6.65
2023-05-20T19:25:11.384Z,6.95
2023-05-20T19:27:38.004Z,7.05
2023-05-20T19:30:04.793Z,6.93
2023-05-20T19:32:31.396Z,6.28
2023-05-20T19:34:58.012Z,5.63
2023-05-20T19:37:24.716Z,6.57
2023-05-20T19:39:51.386Z,6.50
2023-05-20T19:42:17.947Z,6.85
2023-05-20T19:44:46.648Z,6.82
2023-05-20T19:47:13.271Z,7.97
2023-05-20T19:49:40.023Z,8.00
2023-05-20T19:52:06.977Z,7.38
2023-05-20T19:54:33.686Z,7.30
2023-05-20T19:57:00.256Z,6.43
2023-05-20T19:59:26.948Z,6.80
2023-05-20T20:01:53.717Z,6.35
2023-05-20T20:04:20.465Z,7.05
2023-05-20T20:06:48.154Z,6.38
2023-05-20T20:09:15.284Z,7.18
2023-05-20T20:11:43.306Z,6.75
2023-05-20T20:16:36.940Z,6.22
2023-05-20T20:19:04.761Z,6.63
2023-05-20T20:21:31.446Z,7.00
2023-05-20T20:23:58.086Z,7.35
2023-05-20T20:26:25.721Z,7.15
2023-05-20T20:28:52.214Z,7.80
2023-05-20T20:31:18.806Z,7.57
2023-05-20T20:33:45.343Z,7.82
2023-05-20T20:36:11.882Z,7.45
2023-05-20T20:38:38.659Z,7.30
2023-05-20T20:41:05.223Z,8.50
2023-05-20T20:43:34.719Z,7.82
2023-05-20T20:46:01.387Z,7.55
2023-05-20T20:48:27.966Z,7.38
2023-05-20T20:50:57.300Z,7.57
2023-05-20T20:53:23.882Z,7.18
2023-05-20T20:55:53.248Z,8.00
2023-05-20T20:58:19.812Z,8.10
